Time;durP1;ratioP1;P1;durP2;ratioP2;P2;SDS_P1;SDS_P2;PMS_P1;PMS_P2;Temp;Humidity;BMP_temperature;BMP_pressure;BME280_temperature;BME280_humidity;BME280_pressure;Samples;Min_cycle;Max_cycle;Signal;HPM_P1;HPM_P2
2021/01/22 00:00:01;;;;;;;;;;;11.30;99.90;;;;;;5069088;28;19920;-61
2021/01/22 00:03:09;;;;;;;;;;;11.30;99.90;;;;;;5070165;28;19920;-59
2021/01/22 00:06:13;;;;;;;;;;;11.30;99.90;;;;;;5070002;28;19924;-59
2021/01/22 00:09:17;;;;;;;;;;;11.20;99.90;;;;;;5069385;28;19923;-61
2021/01/22 00:12:21;;;;;;;;;;;11.10;99.90;;;;;;5044966;28;20398;-61
2021/01/22 00:15:25;;;;;;;;;;;11.00;99.90;;;;;;5069264;28;19975;-61
2021/01/22 00:18:29;;;;;;;;;;;10.90;99.90;;;;;;5069258;28;19919;-56
2021/01/22 00:21:33;;;;;;;;;;;10.90;99.90;;;;;;5042335;28;19920;-60
2021/01/22 00:24:37;;;;;;;;;;;11.00;99.90;;;;;;5068928;28;19936;-61
2021/01/22 00:27:41;;;;;;;;;;;11.00;99.90;;;;;;5071113;28;19919;-62
2021/01/22 00:30:45;;;;;;;;;;;11.10;99.90;;;;;;5072956;28;19936;-61
2021/01/22 00:33:49;;;;;;;;;;;11.20;99.90;;;;;;5073409;28;19924;-60
2021/01/22 00:36:53;;;;;;;;;;;11.20;99.90;;;;;;5046780;28;20291;-61
2021/01/22 00:39:57;;;;;;;;;;;11.20;99.90;;;;;;5072543;28;21468;-61
2021/01/22 00:43:01;;;;;;;;;;;11.30;99.90;;;;;;5052693;28;19931;-61
2021/01/22 00:46:05;;;;;;;;;;;11.30;99.90;;;;;;5071758;28;19935;-60
2021/01/22 00:49:09;;;;;;;;;;;11.20;99.90;;;;;;5072331;28;19923;-61
2021/01/22 00:52:13;;;;;;;;;;;11.30;99.90;;;;;;5073187;28;19923;-60
2021/01/22 00:55:18;;;;;;;;;;;11.30;99.90;;;;;;5073113;28;19920;-59
2021/01/22 00:58:22;;;;;;;;;;;11.30;99.90;;;;;;5072663;28;19924;-60
2021/01/22 01:01:34;;;;;;;;;;;11.40;99.90;;;;;;5071735;28;19936;-62
2021/01/22 01:04:41;;;;;;;;;;;11.40;99.90;;;;;;5071987;28;19917;-60
2021/01/22 01:07:50;;;;;;;;;;;11.40;99.90;;;;;;5071477;28;19935;-61
2021/01/22 01:11:02;;;;;;;;;;;11.50;99.90;;;;;;5071329;28;19920;-61
2021/01/22 01:14:27;;;;;;;;;;;11.50;99.90;;;;;;5073860;28;19927;-59
2021/01/22 01:17:33;;;;;;;;;;;11.40;99.90;;;;;;5059712;28;19919;-61
2021/01/22 01:20:37;;;;;;;;;;;11.40;99.90;;;;;;5050295;28;19924;-61
2021/01/22 01:23:41;;;;;;;;;;;11.40;99.90;;;;;;5062188;28;19919;-61
2021/01/22 01:26:45;;;;;;;;;;;11.50;99.90;;;;;;5046359;28;19927;-61
2021/01/22 01:29:49;;;;;;;;;;;11.50;99.90;;;;;;5071537;28;19920;-61
2021/01/22 01:32:53;;;;;;;;;;;11.70;99.90;;;;;;5072481;28;19919;-60
2021/01/22 01:36:16;;;;;;;;;;;11.70;99.90;;;;;;5072806;28;20401;-58
2021/01/22 01:39:20;;;;;;;;;;;11.70;99.90;;;;;;5056051;28;19912;-61
2021/01/22 01:42:25;;;;;;;;;;;11.80;99.90;;;;;;5071996;28;19919;-61
2021/01/22 01:45:29;;;;;;;;;;;11.80;99.90;;;;;;5058882;28;20310;-59
2021/01/22 01:48:33;;;;;;;;;;;11.80;99.90;;;;;;5062472;28;19990;-61
2021/01/22 01:51:36;;;;;;;;;;;11.80;99.90;;;;;;5071661;28;20433;-59
2021/01/22 01:54:41;;;;;;;;;;;11.70;99.90;;;;;;5071217;28;19928;-61
2021/01/22 01:57:45;;;;;;;;;;;11.50;99.90;;;;;;5071425;28;19923;-60
2021/01/22 02:00:49;;;;;;;;;;;11.30;99.90;;;;;;5071099;28;19923;-59
2021/01/22 02:03:54;;;;;;;;;;;11.20;99.90;;;;;;5071861;28;19936;-61
2021/01/22 02:06:58;;;;;;;;;;;11.00;99.90;;;;;;5071301;28;19920;-61
2021/01/22 02:10:02;;;;;;;;;;;11.00;99.90;;;;;;5070656;28;19912;-62
2021/01/22 02:13:06;;;;;;;;;;;10.90;99.90;;;;;;5071052;28;19919;-61
2021/01/22 02:16:10;;;;;;;;;;;10.90;99.90;;;;;;5071500;28;19931;-60
2021/01/22 02:19:16;;;;;;;;;;;10.90;99.90;;;;;;5068852;28;19919;-60
2021/01/22 02:22:20;;;;;;;;;;;10.80;99.90;;;;;;5055932;28;19920;-61
2021/01/22 02:25:36;;;;;;;;;;;10.70;99.90;;;;;;5071075;28;19919;-62
2021/01/22 02:28:41;;;;;;;;;;;10.60;99.90;;;;;;5071299;28;19919;-61
2021/01/22 02:31:46;;;;;;;;;;;10.40;99.90;;;;;;5042667;28;19920;-62
2021/01/22 02:34:51;;;;;;;;;;;10.40;99.90;;;;;;5070745;28;19924;-60
2021/01/22 02:37:55;;;;;;;;;;;10.40;99.90;;;;;;5070854;28;20028;-61
2021/01/22 02:40:59;;;;;;;;;;;10.40;99.90;;;;;;5070249;28;20405;-62
2021/01/22 02:44:04;;;;;;;;;;;10.30;99.90;;;;;;5061658;28;19919;-63
2021/01/22 02:47:08;;;;;;;;;;;10.40;99.90;;;;;;5078030;22;19947;-80
2021/01/22 02:50:32;;;;;;;;;;;10.30;99.90;;;;;;5068496;28;19924;-80
2021/01/22 02:53:36;;;;;;;;;;;10.30;99.90;;;;;;5069205;28;19928;-80
2021/01/22 02:56:47;;;;;;;;;;;10.30;99.90;;;;;;5066360;28;19919;-80
2021/01/22 03:00:06;;;;;;;;;;;10.20;99.90;;;;;;5075359;28;20286;-78
2021/01/22 03:03:15;;;;;;;;;;;10.30;99.90;;;;;;5062185;28;19924;-80
2021/01/22 03:06:29;;;;;;;;;;;10.30;99.90;;;;;;5060864;28;19922;-80
2021/01/22 03:09:34;;;;;;;;;;;10.20;99.90;;;;;;5080679;28;19931;-79
2021/01/22 03:12:39;;;;;;;;;;;10.20;99.90;;;;;;5077483;28;19927;-79
2021/01/22 03:15:43;;;;;;;;;;;10.10;99.90;;;;;;5075559;28;19927;-80
2021/01/22 03:18:57;;;;;;;;;;;10.10;99.90;;;;;;5081973;28;19920;-81
2021/01/22 03:22:02;;;;;;;;;;;10.10;99.90;;;;;;5069683;28;19920;-80
2021/01/22 03:25:07;;;;;;;;;;;10.10;99.90;;;;;;5062020;28;19927;-79
2021/01/22 03:28:11;;;;;;;;;;;10.10;99.90;;;;;;5075154;28;19919;-79
2021/01/22 03:31:15;;;;;;;;;;;10.20;99.90;;;;;;5074527;28;20396;-80
2021/01/22 03:34:21;;;;;;;;;;;10.20;99.90;;;;;;5086784;28;20467;-80
2021/01/22 03:37:25;;;;;;;;;;;10.30;99.90;;;;;;5074163;28;19919;-80
2021/01/22 03:40:29;;;;;;;;;;;10.30;99.90;;;;;;5062172;28;19923;-80
2021/01/22 03:43:34;;;;;;;;;;;10.30;99.90;;;;;;5074713;28;19919;-80
2021/01/22 03:46:38;;;;;;;;;;;10.40;99.90;;;;;;5049738;28;19913;-80
2021/01/22 03:49:42;;;;;;;;;;;10.40;99.90;;;;;;5073677;28;19926;-80
2021/01/22 03:52:46;;;;;;;;;;;10.50;99.90;;;;;;5073004;28;20287;-80
2021/01/22 03:55:50;;;;;;;;;;;10.50;99.90;;;;;;5072229;28;20370;-79
2021/01/22 03:58:54;;;;;;;;;;;10.50;99.90;;;;;;5066009;28;20282;-79
2021/01/22 04:01:58;;;;;;;;;;;10.50;99.90;;;;;;5072851;28;19928;-79
2021/01/22 04:05:03;;;;;;;;;;;10.50;99.90;;;;;;5074331;28;19919;-80
2021/01/22 04:08:07;;;;;;;;;;;10.60;99.90;;;;;;5060797;28;19917;-79
2021/01/22 04:11:11;;;;;;;;;;;10.60;99.90;;;;;;5052905;28;19920;-80
2021/01/22 04:14:15;;;;;;;;;;;10.60;99.90;;;;;;5073473;28;19927;-79
2021/01/22 04:17:19;;;;;;;;;;;10.60;99.90;;;;;;5074340;28;19924;-80
2021/01/22 04:20:23;;;;;;;;;;;10.60;99.90;;;;;;5073720;28;19920;-80
2021/01/22 04:23:27;;;;;;;;;;;10.60;99.90;;;;;;5060620;28;20280;-80
2021/01/22 04:26:31;;;;;;;;;;;10.70;99.90;;;;;;5071873;28;19924;-80
2021/01/22 04:29:36;;;;;;;;;;;10.60;99.90;;;;;;5077891;28;19936;-80
2021/01/22 04:32:41;;;;;;;;;;;10.70;99.90;;;;;;5060769;28;19919;-80
2021/01/22 04:35:45;;;;;;;;;;;10.70;99.90;;;;;;5065202;28;19923;-80
2021/01/22 04:38:49;;;;;;;;;;;10.70;99.90;;;;;;5072587;28;19923;-80
2021/01/22 04:41:55;;;;;;;;;;;10.70;99.90;;;;;;5080177;28;20285;-80
2021/01/22 04:44:59;;;;;;;;;;;10.80;99.90;;;;;;5063018;28;19992;-80
2021/01/22 04:48:04;;;;;;;;;;;10.80;99.90;;;;;;5060866;28;20286;-79
2021/01/22 04:51:08;;;;;;;;;;;10.70;99.90;;;;;;5073757;28;19924;-79
2021/01/22 04:54:26;;;;;;;;;;;10.80;99.90;;;;;;5073037;28;19928;-79
2021/01/22 04:57:31;;;;;;;;;;;10.80;99.90;;;;;;5072325;28;19919;-79
2021/01/22 05:00:36;;;;;;;;;;;10.80;99.90;;;;;;5074600;28;19913;-79
2021/01/22 05:03:40;;;;;;;;;;;10.80;99.90;;;;;;5074417;28;19939;-79
2021/01/22 05:06:47;;;;;;;;;;;10.90;99.90;;;;;;5060588;28;19920;-78
2021/01/22 05:09:51;;;;;;;;;;;10.90;99.90;;;;;;5072828;28;19912;-79
2021/01/22 05:12:55;;;;;;;;;;;11.00;99.90;;;;;;5071064;28;19913;-79
2021/01/22 05:16:12;;;;;;;;;;;11.00;99.90;;;;;;5074704;28;19927;-80
2021/01/22 05:19:20;;;;;;;;;;;11.00;99.90;;;;;;5057454;28;19919;-79
2021/01/22 05:22:24;;;;;;;;;;;11.00;99.90;;;;;;5097465;28;20726;-80
2021/01/22 05:25:28;;;;;;;;;;;11.00;99.90;;;;;;5097499;28;19919;-79
2021/01/22 05:28:36;;;;;;;;;;;11.00;99.90;;;;;;5062615;28;20385;-80
2021/01/22 05:31:40;;;;;;;;;;;11.00;99.90;;;;;;5075773;28;19923;-79
2021/01/22 05:34:44;;;;;;;;;;;11.00;99.90;;;;;;5062808;28;19923;-79
2021/01/22 05:37:50;;;;;;;;;;;11.00;99.90;;;;;;5071462;28;19913;-78
2021/01/22 05:40:57;;;;;;;;;;;11.00;99.90;;;;;;5071286;28;19923;-79
2021/01/22 05:44:01;;;;;;;;;;;11.00;99.90;;;;;;5057813;28;19920;-79
2021/01/22 05:47:09;;;;;;;;;;;10.90;99.90;;;;;;5067918;28;19920;-80
2021/01/22 05:50:14;;;;;;;;;;;10.90;99.90;;;;;;5072465;28;20294;-79
2021/01/22 05:53:20;;;;;;;;;;;11.00;99.90;;;;;;5064548;28;19931;-79
2021/01/22 05:56:23;;;;;;;;;;;11.00;99.90;;;;;;5075957;28;19935;-79
2021/01/22 05:59:27;;;;;;;;;;;11.00;99.90;;;;;;5075464;28;19912;-79
2021/01/22 06:02:31;;;;;;;;;;;11.00;99.90;;;;;;5076485;28;19919;-80
2021/01/22 06:05:37;;;;;;;;;;;11.10;99.90;;;;;;5075870;28;19920;-79
2021/01/22 06:08:47;;;;;;;;;;;11.00;99.90;;;;;;5068318;28;19923;-79
2021/01/22 06:11:52;;;;;;;;;;;11.00;99.90;;;;;;5074435;28;20393;-80
2021/01/22 06:14:57;;;;;;;;;;;10.90;99.90;;;;;;5076261;28;19931;-79
2021/01/22 06:18:02;;;;;;;;;;;10.80;99.90;;;;;;5074881;28;19935;-79
2021/01/22 06:21:14;;;;;;;;;;;10.70;99.90;;;;;;5076832;28;19920;-79
2021/01/22 06:24:18;;;;;;;;;;;10.70;99.90;;;;;;5078157;28;19919;-79
2021/01/22 06:27:23;;;;;;;;;;;10.70;99.90;;;;;;5084578;28;19919;-79
2021/01/22 06:30:28;;;;;;;;;;;10.90;99.90;;;;;;5075672;28;19919;-79
2021/01/22 06:33:33;;;;;;;;;;;11.00;99.90;;;;;;5065274;28;20401;-79
2021/01/22 06:36:38;;;;;;;;;;;11.00;99.90;;;;;;5075874;28;19943;-78
2021/01/22 06:39:42;;;;;;;;;;;11.00;99.90;;;;;;5071300;28;19951;-78
2021/01/22 06:42:47;;;;;;;;;;;11.20;99.90;;;;;;5052434;28;19928;-79
2021/01/22 06:45:57;;;;;;;;;;;11.20;99.90;;;;;;5082241;28;19936;-78
2021/01/22 06:49:01;;;;;;;;;;;11.20;99.90;;;;;;5070598;28;20285;-79
2021/01/22 06:52:10;;;;;;;;;;;11.20;99.90;;;;;;5068871;28;19924;-79
2021/01/22 06:55:14;;;;;;;;;;;11.20;99.90;;;;;;5072099;28;20289;-79
2021/01/22 06:58:28;;;;;;;;;;;11.20;99.90;;;;;;5076520;28;20432;-79
2021/01/22 07:01:33;;;;;;;;;;;11.00;99.90;;;;;;5068779;28;19919;-79
2021/01/22 07:04:38;;;;;;;;;;;11.00;99.90;;;;;;5070417;28;19935;-79
2021/01/22 07:07:48;;;;;;;;;;;10.90;99.90;;;;;;5076062;28;19923;-79
2021/01/22 07:10:56;;;;;;;;;;;11.00;99.90;;;;;;5069847;28;19935;-79
2021/01/22 07:13:59;;;;;;;;;;;11.00;99.90;;;;;;5074800;28;20290;-79
2021/01/22 07:17:04;;;;;;;;;;;11.00;99.90;;;;;;5073150;28;20341;-79
2021/01/22 07:20:10;;;;;;;;;;;10.90;99.90;;;;;;5068121;28;19912;-79
2021/01/22 07:23:15;;;;;;;;;;;11.00;99.90;;;;;;5070090;28;19919;-79
2021/01/22 07:26:19;;;;;;;;;;;11.20;99.90;;;;;;5070969;28;20297;-79
2021/01/22 07:29:24;;;;;;;;;;;11.30;99.90;;;;;;5073326;28;19920;-79
2021/01/22 07:32:28;;;;;;;;;;;11.50;99.90;;;;;;5072845;28;19962;-79
2021/01/22 07:35:32;;;;;;;;;;;11.50;99.90;;;;;;5070166;28;19928;-79
2021/01/22 07:38:37;;;;;;;;;;;11.50;99.90;;;;;;5069436;28;20428;-80
2021/01/22 07:41:41;;;;;;;;;;;11.40;99.90;;;;;;5073041;28;19920;-79
2021/01/22 07:44:46;;;;;;;;;;;11.30;99.90;;;;;;5071050;28;19912;-79
2021/01/22 07:47:50;;;;;;;;;;;11.20;99.90;;;;;;5069617;28;20381;-79
2021/01/22 07:50:54;;;;;;;;;;;11.30;99.90;;;;;;5075258;28;19916;-79
2021/01/22 07:53:59;;;;;;;;;;;11.30;99.90;;;;;;5073641;28;19920;-80
2021/01/22 07:57:03;;;;;;;;;;;11.30;99.90;;;;;;5074068;28;19923;-80
2021/01/22 08:00:08;;;;;;;;;;;11.50;99.90;;;;;;5065420;28;19924;-79
2021/01/22 08:03:16;;;;;;;;;;;11.50;99.90;;;;;;5062875;28;19924;-79
2021/01/22 08:06:20;;;;;;;;;;;11.50;99.90;;;;;;5060604;28;19919;-79
2021/01/22 08:09:24;;;;;;;;;;;11.50;99.90;;;;;;5070747;28;19940;-79
2021/01/22 08:12:30;;;;;;;;;;;11.50;99.90;;;;;;5068138;28;19924;-79
2021/01/22 08:15:34;;;;;;;;;;;11.50;99.90;;;;;;5053233;28;19947;-79
2021/01/22 08:18:44;;;;;;;;;;;11.50;99.90;;;;;;5070409;28;19919;-79
2021/01/22 08:21:48;;;;;;;;;;;11.50;99.90;;;;;;5058265;22;19948;-61
2021/01/22 08:24:53;;;;;;;;;;;11.60;99.90;;;;;;5035734;28;19928;-60
2021/01/22 08:27:58;;;;;;;;;;;11.60;99.90;;;;;;5043576;28;19952;-61
2021/01/22 08:31:02;;;;;;;;;;;11.60;99.90;;;;;;5043162;28;19928;-60
2021/01/22 08:34:07;;;;;;;;;;;11.70;99.90;;;;;;5039968;28;19920;-60
2021/01/22 08:37:11;;;;;;;;;;;11.80;99.90;;;;;;5036604;28;19927;-60
2021/01/22 08:40:16;;;;;;;;;;;11.80;99.90;;;;;;5041171;28;20364;-60
2021/01/22 08:43:20;;;;;;;;;;;11.90;99.90;;;;;;5042409;28;19928;-59
2021/01/22 08:46:24;;;;;;;;;;;12.00;99.90;;;;;;5040649;28;20287;-60
2021/01/22 08:49:28;;;;;;;;;;;12.10;99.90;;;;;;5080253;23;20391;-60
2021/01/22 08:52:32;;;;;;;;;;;12.00;99.90;;;;;;5069689;28;19921;-61
2021/01/22 08:55:37;;;;;;;;;;;12.10;99.90;;;;;;5072244;28;19959;-59
2021/01/22 08:59:00;;;;;;;;;;;11.90;99.90;;;;;;5063800;28;19931;-62
2021/01/22 09:02:03;;;;;;;;;;;11.90;99.90;;;;;;5063001;28;19920;-61
2021/01/22 09:05:09;;;;;;;;;;;12.10;99.90;;;;;;5071271;28;19916;-61
2021/01/22 09:08:13;;;;;;;;;;;12.10;99.90;;;;;;5071921;28;19923;-61
2021/01/22 09:11:36;;;;;;;;;;;12.10;99.90;;;;;;5071208;28;19927;-61
2021/01/22 09:14:51;;;;;;;;;;;12.00;99.90;;;;;;5069876;28;20401;-61
2021/01/22 09:17:55;;;;;;;;;;;12.20;99.90;;;;;;5070463;28;19912;-61
2021/01/22 09:20:59;;;;;;;;;;;12.20;99.90;;;;;;5069580;28;19917;-62
2021/01/22 09:24:03;;;;;;;;;;;12.20;99.90;;;;;;5070435;28;20381;-61
2021/01/22 09:27:07;;;;;;;;;;;12.30;99.90;;;;;;5071272;28;19912;-61
2021/01/22 09:30:12;;;;;;;;;;;12.40;99.90;;;;;;5071958;28;19919;-61
2021/01/22 09:33:16;;;;;;;;;;;12.50;99.90;;;;;;5071609;28;19913;-61
2021/01/22 09:36:20;;;;;;;;;;;12.50;99.90;;;;;;5071669;28;19923;-62
2021/01/22 09:39:24;;;;;;;;;;;12.50;99.90;;;;;;5059904;28;19920;-60
2021/01/22 09:42:28;;;;;;;;;;;12.50;99.90;;;;;;5070966;28;20421;-61
2021/01/22 09:45:33;;;;;;;;;;;12.40;99.90;;;;;;5071965;28;19939;-62
2021/01/22 09:48:37;;;;;;;;;;;12.60;99.90;;;;;;5066497;28;20489;-61
2021/01/22 09:51:41;;;;;;;;;;;12.60;99.90;;;;;;5070807;28;19924;-62
2021/01/22 09:54:45;;;;;;;;;;;12.50;99.90;;;;;;5068155;28;20405;-62
2021/01/22 09:57:51;;;;;;;;;;;12.50;99.90;;;;;;5066111;28;19924;-61
2021/01/22 10:00:54;;;;;;;;;;;12.60;99.90;;;;;;5068712;28;19919;-62
2021/01/22 10:03:59;;;;;;;;;;;12.50;99.90;;;;;;5069107;28;19942;-61
2021/01/22 10:07:04;;;;;;;;;;;12.50;99.90;;;;;;5067158;28;19924;-61
2021/01/22 10:10:08;;;;;;;;;;;12.60;99.90;;;;;;5070601;28;19923;-61
2021/01/22 10:13:12;;;;;;;;;;;12.80;99.90;;;;;;5060020;28;19939;-61
2021/01/22 10:16:16;;;;;;;;;;;12.90;99.90;;;;;;5070761;28;19939;-60
2021/01/22 10:19:20;;;;;;;;;;;12.90;99.90;;;;;;5070540;28;19917;-61
2021/01/22 10:22:25;;;;;;;;;;;12.90;99.90;;;;;;5071035;28;20393;-59
2021/01/22 10:25:29;;;;;;;;;;;13.00;99.90;;;;;;5068826;28;19927;-62
2021/01/22 10:28:33;;;;;;;;;;;13.10;99.90;;;;;;5068611;28;19920;-59
2021/01/22 10:31:37;;;;;;;;;;;12.90;99.90;;;;;;5069751;28;20307;-61
2021/01/22 10:34:41;;;;;;;;;;;12.80;99.90;;;;;;5067210;28;19924;-61
2021/01/22 10:37:45;;;;;;;;;;;12.80;99.90;;;;;;5070146;28;20240;-61
2021/01/22 10:40:49;;;;;;;;;;;12.80;99.90;;;;;;5057620;28;19939;-61
2021/01/22 10:43:53;;;;;;;;;;;12.70;99.90;;;;;;5069504;28;19939;-60
2021/01/22 10:46:57;;;;;;;;;;;12.70;99.90;;;;;;5065019;28;20386;-60
2021/01/22 10:50:03;;;;;;;;;;;12.60;99.90;;;;;;5067564;28;19928;-62
2021/01/22 10:53:07;;;;;;;;;;;12.70;99.90;;;;;;5068285;28;20304;-60
2021/01/22 10:56:15;;;;;;;;;;;12.60;99.90;;;;;;5057759;28;19924;-62
2021/01/22 10:59:19;;;;;;;;;;;12.50;99.90;;;;;;5068730;28;20334;-61
2021/01/22 11:02:22;;;;;;;;;;;12.50;99.90;;;;;;5064332;28;20026;-58
2021/01/22 11:05:27;;;;;;;;;;;12.50;99.90;;;;;;5067329;28;19923;-60
2021/01/22 11:08:31;;;;;;;;;;;12.60;99.90;;;;;;5060096;28;19913;-62
2021/01/22 11:11:35;;;;;;;;;;;12.50;99.90;;;;;;5068425;28;19940;-61
2021/01/22 11:14:39;;;;;;;;;;;12.60;99.90;;;;;;5069299;28;19920;-61
2021/01/22 11:17:43;;;;;;;;;;;12.50;99.90;;;;;;5068191;28;19928;-60
2021/01/22 11:20:47;;;;;;;;;;;12.40;99.90;;;;;;5065761;28;19943;-61
2021/01/22 11:23:51;;;;;;;;;;;12.40;99.90;;;;;;5067043;28;19919;-61
2021/01/22 11:26:55;;;;;;;;;;;12.40;99.90;;;;;;5070610;28;19919;-62
2021/01/22 11:29:59;;;;;;;;;;;12.50;99.90;;;;;;5069897;28;19987;-61
2021/01/22 11:33:05;;;;;;;;;;;12.50;99.90;;;;;;5070663;28;19936;-62
2021/01/22 11:36:09;;;;;;;;;;;12.60;99.90;;;;;;5060497;28;19931;-61
2021/01/22 11:39:14;;;;;;;;;;;12.60;99.90;;;;;;5063064;28;19923;-60
2021/01/22 11:42:18;;;;;;;;;;;12.60;99.90;;;;;;5070100;28;19919;-61
2021/01/22 11:45:22;;;;;;;;;;;12.60;99.90;;;;;;5065883;28;19966;-62
2021/01/22 11:48:25;;;;;;;;;;;12.60;99.90;;;;;;5069340;28;20030;-62
2021/01/22 11:51:29;;;;;;;;;;;12.60;99.90;;;;;;5067592;28;19920;-62
2021/01/22 11:54:34;;;;;;;;;;;12.60;99.90;;;;;;5060424;28;20418;-61
2021/01/22 11:57:38;;;;;;;;;;;12.70;99.90;;;;;;5068266;28;19920;-62
2021/01/22 12:00:42;;;;;;;;;;;12.70;99.90;;;;;;5069466;28;19920;-60
2021/01/22 12:03:46;;;;;;;;;;;12.70;99.90;;;;;;5070045;28;19912;-62
2021/01/22 12:06:50;;;;;;;;;;;12.60;99.90;;;;;;5066667;28;19916;-61
2021/01/22 12:09:55;;;;;;;;;;;12.70;99.90;;;;;;5063359;28;19919;-61
2021/01/22 12:12:59;;;;;;;;;;;12.60;99.90;;;;;;5069237;28;19994;-58
2021/01/22 12:16:03;;;;;;;;;;;12.60;99.90;;;;;;5067566;28;19920;-60
2021/01/22 12:19:07;;;;;;;;;;;12.50;99.90;;;;;;5066211;28;19912;-60
2021/01/22 12:22:11;;;;;;;;;;;12.50;99.90;;;;;;5061908;28;19924;-60
2021/01/22 12:25:15;;;;;;;;;;;12.50;99.90;;;;;;5071072;28;19936;-62
2021/01/22 12:28:20;;;;;;;;;;;12.60;99.90;;;;;;5071334;28;19919;-61
2021/01/22 12:31:24;;;;;;;;;;;12.50;99.90;;;;;;5072057;28;19932;-61
2021/01/22 12:34:28;;;;;;;;;;;12.60;99.90;;;;;;5071183;28;19923;-60
2021/01/22 12:37:32;;;;;;;;;;;12.50;99.90;;;;;;5052534;28;20406;-61
2021/01/22 12:40:36;;;;;;;;;;;12.50;99.90;;;;;;5071278;28;19924;-61
2021/01/22 12:43:40;;;;;;;;;;;12.50;99.90;;;;;;5070268;28;19923;-57
2021/01/22 12:46:44;;;;;;;;;;;12.60;99.90;;;;;;5068668;28;19919;-59
2021/01/22 12:49:48;;;;;;;;;;;12.70;99.90;;;;;;5060586;28;20066;-62
2021/01/22 12:52:52;;;;;;;;;;;12.70;99.90;;;;;;5071743;28;19923;-60
2021/01/22 12:55:57;;;;;;;;;;;12.70;99.90;;;;;;5067429;28;19928;-60
2021/01/22 12:59:01;;;;;;;;;;;12.70;99.90;;;;;;5071973;28;19932;-60
2021/01/22 13:02:06;;;;;;;;;;;12.70;99.90;;;;;;5062467;28;20409;-59
2021/01/22 13:05:14;;;;;;;;;;;12.80;99.90;;;;;;5064939;28;19920;-62
2021/01/22 13:08:18;;;;;;;;;;;12.70;99.90;;;;;;5070246;28;19920;-59
2021/01/22 13:11:22;;;;;;;;;;;12.70;99.90;;;;;;5071413;28;20299;-60
2021/01/22 13:14:26;;;;;;;;;;;12.70;99.90;;;;;;5062630;28;19909;-59
2021/01/22 13:17:30;;;;;;;;;;;12.70;99.90;;;;;;5070260;28;19935;-60
2021/01/22 13:20:34;;;;;;;;;;;12.80;99.90;;;;;;5065093;28;19916;-59
2021/01/22 13:23:41;;;;;;;;;;;12.80;99.90;;;;;;5069110;28;19923;-60
2021/01/22 13:26:45;;;;;;;;;;;12.90;99.90;;;;;;5068198;28;20389;-62
2021/01/22 13:29:49;;;;;;;;;;;12.80;99.90;;;;;;5068293;28;20509;-61
2021/01/22 13:32:53;;;;;;;;;;;12.90;99.90;;;;;;5070065;28;19951;-61
2021/01/22 13:35:57;;;;;;;;;;;12.90;99.90;;;;;;5059448;28;19935;-61
2021/01/22 13:39:01;;;;;;;;;;;12.90;99.90;;;;;;5064842;28;19919;-60
2021/01/22 13:42:09;;;;;;;;;;;12.80;99.90;;;;;;5068991;28;19923;-61
2021/01/22 13:45:13;;;;;;;;;;;12.90;99.90;;;;;;5071367;28;19939;-62
2021/01/22 13:48:18;;;;;;;;;;;12.80;99.90;;;;;;5071174;28;19947;-61
2021/01/22 13:51:22;;;;;;;;;;;12.90;99.90;;;;;;5056749;28;19919;-61
2021/01/22 13:54:27;;;;;;;;;;;12.90;99.90;;;;;;5069731;28;19919;-60
2021/01/22 13:57:31;;;;;;;;;;;12.90;99.90;;;;;;5060721;28;19943;-61
2021/01/22 14:00:35;;;;;;;;;;;12.90;99.90;;;;;;5068624;28;19935;-61
2021/01/22 14:03:39;;;;;;;;;;;12.90;99.90;;;;;;5065044;28;19924;-61
2021/01/22 14:06:43;;;;;;;;;;;13.00;99.90;;;;;;5066810;28;20397;-61
2021/01/22 14:09:47;;;;;;;;;;;13.00;99.90;;;;;;5069444;28;19919;-61
2021/01/22 14:12:51;;;;;;;;;;;13.00;99.90;;;;;;5069652;28;19987;-59
2021/01/22 14:15:55;;;;;;;;;;;13.00;99.90;;;;;;5070266;28;20118;-59
2021/01/22 14:18:59;;;;;;;;;;;12.90;99.90;;;;;;5062282;28;19923;-60
2021/01/22 14:22:03;;;;;;;;;;;13.00;99.90;;;;;;5062630;28;19916;-60
2021/01/22 14:25:07;;;;;;;;;;;12.90;99.90;;;;;;5067863;28;19924;-61
2021/01/22 14:28:11;;;;;;;;;;;13.00;99.90;;;;;;5069053;28;19915;-61
2021/01/22 14:31:16;;;;;;;;;;;13.00;99.90;;;;;;5067083;28;19924;-60
2021/01/22 14:34:19;;;;;;;;;;;13.00;99.90;;;;;;5069008;28;19916;-59
2021/01/22 14:37:23;;;;;;;;;;;13.10;99.90;;;;;;5070049;28;19916;-61
2021/01/22 14:40:28;;;;;;;;;;;13.10;99.90;;;;;;5068524;28;19924;-57
2021/01/22 14:43:32;;;;;;;;;;;13.10;99.90;;;;;;5067508;28;19943;-60
2021/01/22 14:46:36;;;;;;;;;;;13.10;99.90;;;;;;5068593;28;19963;-60
2021/01/22 14:49:40;;;;;;;;;;;13.00;99.90;;;;;;5066733;28;20302;-61
2021/01/22 14:52:44;;;;;;;;;;;13.00;99.90;;;;;;5066945;28;19913;-59
2021/01/22 14:55:48;;;;;;;;;;;13.00;99.90;;;;;;5067621;28;19924;-61
2021/01/22 14:58:52;;;;;;;;;;;12.90;99.90;;;;;;5067419;28;20290;-60
2021/01/22 15:01:56;;;;;;;;;;;12.90;99.90;;;;;;5066612;28;19939;-61
2021/01/22 15:05:00;;;;;;;;;;;12.90;99.90;;;;;;5067771;28;19913;-60
2021/01/22 15:08:05;;;;;;;;;;;12.80;99.90;;;;;;5068864;28;19936;-62
2021/01/22 15:11:09;;;;;;;;;;;12.70;99.90;;;;;;5068807;28;20473;-60
2021/01/22 15:14:13;;;;;;;;;;;12.50;99.90;;;;;;5068164;28;20397;-61
2021/01/22 15:17:17;;;;;;;;;;;12.30;99.90;;;;;;5065662;28;19943;-61
2021/01/22 15:20:20;;;;;;;;;;;12.30;99.90;;;;;;5069382;28;19920;-61
2021/01/22 15:23:25;;;;;;;;;;;12.20;99.90;;;;;;5069622;28;20402;-58
2021/01/22 15:26:29;;;;;;;;;;;11.90;99.90;;;;;;5070223;28;21613;-60
2021/01/22 15:29:32;;;;;;;;;;;11.70;99.90;;;;;;5063513;28;19919;-63
2021/01/22 15:32:36;;;;;;;;;;;11.70;99.90;;;;;;5067806;28;19920;-60
2021/01/22 15:35:42;;;;;;;;;;;11.70;99.90;;;;;;5069191;28;19920;-62
2021/01/22 15:38:46;;;;;;;;;;;11.70;99.90;;;;;;5069827;28;20402;-60
2021/01/22 15:41:50;;;;;;;;;;;11.50;99.90;;;;;;5069126;28;19920;-61
2021/01/22 15:44:54;;;;;;;;;;;11.30;99.90;;;;;;5068690;28;19923;-60
2021/01/22 15:47:58;;;;;;;;;;;11.30;99.90;;;;;;5068600;28;19923;-60
2021/01/22 15:51:03;;;;;;;;;;;11.20;99.90;;;;;;5064202;28;19912;-62
2021/01/22 15:54:08;;;;;;;;;;;11.10;99.90;;;;;;5065588;28;19920;-61
2021/01/22 15:57:12;;;;;;;;;;;11.20;99.90;;;;;;5064231;28;19924;-62
2021/01/22 16:00:16;;;;;;;;;;;11.20;99.90;;;;;;5062157;28;20291;-61
2021/01/22 16:03:20;;;;;;;;;;;11.20;99.90;;;;;;5060027;28;19920;-61
2021/01/22 16:06:24;;;;;;;;;;;11.10;99.90;;;;;;5069431;28;19927;-61
2021/01/22 16:09:28;;;;;;;;;;;11.00;99.90;;;;;;5067243;28;20401;-63
2021/01/22 16:12:32;;;;;;;;;;;10.90;99.90;;;;;;5061231;28;19923;-62
2021/01/22 16:15:37;;;;;;;;;;;10.90;99.90;;;;;;5066149;28;19940;-58
2021/01/22 16:18:40;;;;;;;;;;;11.00;99.90;;;;;;5066495;28;19923;-60
2021/01/22 16:21:45;;;;;;;;;;;10.90;99.90;;;;;;5065855;28;20398;-61
2021/01/22 16:24:49;;;;;;;;;;;10.90;99.90;;;;;;5068180;28;20371;-62
2021/01/22 16:27:53;;;;;;;;;;;10.90;99.90;;;;;;5063058;28;19920;-61
2021/01/22 16:30:56;;;;;;;;;;;10.80;99.90;;;;;;5066598;28;19928;-61
2021/01/22 16:34:00;;;;;;;;;;;10.80;99.90;;;;;;5065566;28;19916;-61
2021/01/22 16:37:04;;;;;;;;;;;10.70;99.90;;;;;;5068409;28;20401;-61
2021/01/22 16:40:10;;;;;;;;;;;10.70;99.90;;;;;;5060446;28;19940;-61
2021/01/22 16:43:13;;;;;;;;;;;10.70;99.90;;;;;;5061579;28;19922;-62
2021/01/22 16:46:17;;;;;;;;;;;10.70;99.90;;;;;;5055555;28;20386;-63
2021/01/22 16:49:21;;;;;;;;;;;10.60;99.90;;;;;;5068084;28;19916;-62
2021/01/22 16:52:25;;;;;;;;;;;10.60;99.90;;;;;;5068060;28;20398;-63
2021/01/22 16:55:30;;;;;;;;;;;10.70;99.90;;;;;;5069165;28;20413;-62
2021/01/22 16:58:34;;;;;;;;;;;10.70;99.90;;;;;;5058079;28;20409;-62
2021/01/22 17:01:38;;;;;;;;;;;10.60;99.90;;;;;;5054716;28;20421;-60
2021/01/22 17:04:42;;;;;;;;;;;10.50;99.90;;;;;;5053973;28;20290;-62
2021/01/22 17:07:46;;;;;;;;;;;10.40;99.90;;;;;;5053840;28;19924;-62
2021/01/22 17:10:50;;;;;;;;;;;10.40;99.90;;;;;;5057641;28;19920;-62
2021/01/22 17:13:54;;;;;;;;;;;10.30;99.90;;;;;;5061016;28;19935;-62
2021/01/22 17:16:58;;;;;;;;;;;10.30;99.90;;;;;;5070869;28;19927;-61
2021/01/22 17:20:03;;;;;;;;;;;10.30;99.90;;;;;;5071045;28;20425;-62
2021/01/22 17:23:07;;;;;;;;;;;10.30;99.90;;;;;;5065854;28;19923;-61
2021/01/22 17:26:12;;;;;;;;;;;10.40;99.90;;;;;;5064093;28;19923;-63
2021/01/22 17:29:16;;;;;;;;;;;10.40;99.90;;;;;;5071464;28;19919;-63
2021/01/22 17:32:20;;;;;;;;;;;10.30;99.90;;;;;;5066510;28;19913;-63
2021/01/22 17:35:24;;;;;;;;;;;10.30;99.90;;;;;;5061062;28;19923;-62
2021/01/22 17:38:28;;;;;;;;;;;10.40;99.90;;;;;;5071756;28;19935;-62
2021/01/22 17:41:33;;;;;;;;;;;10.40;99.90;;;;;;5070831;28;19935;-64
2021/01/22 17:44:37;;;;;;;;;;;10.40;99.90;;;;;;5071788;28;20322;-64
2021/01/22 17:47:41;;;;;;;;;;;10.50;99.90;;;;;;5061591;28;20405;-63
2021/01/22 17:50:45;;;;;;;;;;;10.60;99.90;;;;;;5071475;28;19927;-62
2021/01/22 17:53:52;;;;;;;;;;;10.60;99.90;;;;;;5069075;28;20292;-62